Time;durP1;ratioP1;P1;durP2;ratioP2;P2;SDS_P1;SDS_P2;PMS_P1;PMS_P2;Temp;Humidity;BMP_temperature;BMP_pressure;BME280_temperature;BME280_humidity;BME280_pressure;Samples;Min_cycle;Max_cycle;Signal;HPM_P1;HPM_P2
2024/04/02 00:01:27;;;;;;;6.68;3.55;;;;;;;4.99;100.00;99125.91;5000020;28;20037;-74
2024/04/02 00:03:52;;;;;;;5.22;3.22;;;;;;;4.91;100.00;99127.81;5000030;28;20036;-74
2024/04/02 00:06:18;;;;;;;8.25;3.90;;;;;;;4.84;100.00;99136.53;5016340;28;20396;-74
2024/04/02 00:08:44;;;;;;;8.05;4.07;;;;;;;4.78;100.00;99137.22;4999919;28;20060;-73
2024/04/02 00:11:09;;;;;;;7.53;3.75;;;;;;;4.66;100.00;99138.66;5016728;28;20032;-73
2024/04/02 00:13:35;;;;;;;8.23;3.47;;;;;;;4.51;100.00;99140.44;5032099;28;20457;-73
2024/04/02 00:16:01;;;;;;;8.65;2.75;;;;;;;4.35;100.00;99134.19;5016182;28;20076;-74
2024/04/02 00:18:27;;;;;;;7.07;3.75;;;;;;;4.27;100.00;99144.88;4999776;28;20029;-74
2024/04/02 00:20:58;;;;;;;5.45;3.13;;;;;;;4.25;100.00;99144.22;4999921;28;20044;-73
2024/04/02 00:23:24;;;;;;;6.50;3.55;;;;;;;4.11;100.00;99144.97;5032420;28;20036;-74
2024/04/02 00:26:00;;;;;;;6.15;3.45;;;;;;;4.07;100.00;99141.00;4999917;28;20033;-74
2024/04/02 00:28:26;;;;;;;5.63;3.47;;;;;;;4.04;100.00;99144.00;5049013;28;20029;-74
2024/04/02 00:30:52;;;;;;;6.72;2.85;;;;;;;4.07;100.00;99138.34;4999772;28;20056;-73
2024/04/02 00:33:17;;;;;;;6.60;3.05;;;;;;;4.03;100.00;99145.84;5032301;28;20040;-74
2024/04/02 00:35:43;;;;;;;6.78;3.25;;;;;;;4.00;100.00;99146.19;4999620;28;20022;-74
2024/04/02 00:38:08;;;;;;;8.02;3.58;;;;;;;3.99;100.00;99141.84;5032375;28;20029;-74
2024/04/02 00:40:40;;;;;;;7.93;3.97;;;;;;;3.99;100.00;99149.00;5015929;28;20033;-74
2024/04/02 00:43:07;;;;;;;7.72;3.25;;;;;;;4.16;100.00;99148.78;5016046;28;20033;-74
2024/04/02 00:45:32;;;;;;;7.03;3.90;;;;;;;4.34;100.00;99148.53;5032352;28;20132;-74
2024/04/02 00:47:58;;;;;;;8.43;4.78;;;;;;;4.43;100.00;99148.47;5019826;28;20112;-73
2024/04/02 00:50:24;;;;;;;9.13;4.00;;;;;;;4.48;100.00;99146.94;5003623;28;20478;-74
2024/04/02 00:52:49;;;;;;;9.52;4.25;;;;;;;4.50;100.00;99144.94;5003534;28;20044;-74
2024/04/02 00:55:15;;;;;;;7.95;3.67;;;;;;;4.48;100.00;99146.09;5003239;28;20121;-73
2024/04/02 00:57:41;;;;;;;9.38;3.45;;;;;;;4.51;100.00;99140.44;5003422;28;20056;-74
2024/04/02 01:00:10;;;;;;;8.93;3.15;;;;;;;4.55;100.00;99136.41;5036094;28;20029;-73
2024/04/02 01:02:36;;;;;;;8.48;4.10;;;;;;;4.56;100.00;99135.41;5019191;28;20488;-74
2024/04/02 01:05:01;;;;;;;6.78;4.30;;;;;;;4.53;100.00;99135.75;5019452;28;20064;-74
2024/04/02 01:07:27;;;;;;;7.68;3.65;;;;;;;4.51;100.00;99138.59;5003232;28;20424;-73
2024/04/02 01:09:53;;;;;;;9.00;4.97;;;;;;;4.53;100.00;99141.09;5003116;28;20056;-74
2024/04/02 01:12:18;;;;;;;9.00;3.72;;;;;;;4.58;100.00;99146.72;5019497;28;20039;-74
2024/04/02 01:14:44;;;;;;;8.57;3.78;;;;;;;4.55;100.00;99155.03;5003120;28;20034;-73
2024/04/02 01:17:10;;;;;;;7.22;4.03;;;;;;;4.44;100.00;99153.59;5019292;28;20068;-73
2024/04/02 01:19:36;;;;;;;7.65;4.25;;;;;;;4.35;100.00;99158.16;5019479;28;20033;-74
2024/04/02 01:22:02;;;;;;;9.13;4.32;;;;;;;4.24;100.00;99155.06;5023714;28;20041;-74
2024/04/02 01:24:28;;;;;;;9.18;3.95;;;;;;;4.19;100.00;99158.25;5009247;28;20044;-74
2024/04/02 01:26:54;;;;;;;8.15;4.10;;;;;;;4.16;100.00;99164.72;5002419;28;20079;-74
2024/04/02 01:29:20;;;;;;;8.05;3.75;;;;;;;4.11;100.00;99168.91;5002702;28;20025;-73
2024/04/02 01:31:46;;;;;;;9.45;3.83;;;;;;;3.95;100.00;99152.03;5019579;28;20022;-74
2024/04/02 01:34:13;;;;;;;6.88;3.55;;;;;;;3.85;100.00;99167.34;5035527;28;20453;-73
2024/04/02 01:36:42;;;;;;;5.20;2.97;;;;;;;3.71;100.00;99170.72;5019172;28;20064;-74
2024/04/02 01:39:07;;;;;;;9.18;4.35;;;;;;;3.82;100.00;99174.84;5017950;28;20033;-75
2024/04/02 01:41:34;;;;;;;8.32;4.68;;;;;;;4.06;100.00;99173.94;5018787;28;20033;-73
2024/04/02 01:44:03;;;;;;;9.98;4.90;;;;;;;4.18;100.00;99180.50;5002436;28;20040;-73
2024/04/02 01:46:29;;;;;;;10.43;4.57;;;;;;;4.22;100.00;99178.34;5018248;28;20468;-74
2024/04/02 01:48:55;;;;;;;10.82;3.88;;;;;;;4.20;100.00;99178.50;5035256;28;20521;-73
2024/04/02 01:51:21;;;;;;;7.22;3.67;;;;;;;4.10;100.00;99178.75;5034766;28;20048;-73
2024/04/02 01:53:47;;;;;;;10.45;3.92;;;;;;;4.01;100.00;99165.63;5002077;28;20372;-74
2024/04/02 01:56:13;;;;;;;6.75;4.03;;;;;;;3.96;100.00;99182.94;5002321;28;20038;-74
2024/04/02 01:58:38;;;;;;;6.53;3.85;;;;;;;4.00;100.00;99185.28;5016965;28;20025;-74
2024/04/02 02:01:04;;;;;;;6.75;3.50;;;;;;;3.99;100.00;99180.94;5002351;28;20029;-74
2024/04/02 02:03:30;;;;;;;7.20;4.05;;;;;;;3.98;100.00;99182.75;5034958;28;20048;-74
2024/04/02 02:05:56;;;;;;;6.97;3.85;;;;;;;3.92;100.00;99189.59;5018462;28;20037;-75
2024/04/02 02:08:21;;;;;;;6.93;3.63;;;;;;;3.92;100.00;99194.94;5001991;28;20033;-75
2024/04/02 02:10:47;;;;;;;10.40;5.13;;;;;;;4.02;100.00;99194.69;5002027;28;20479;-74
2024/04/02 02:13:13;;;;;;;8.73;4.00;;;;;;;3.99;100.00;99199.53;5018062;28;20044;-74
2024/04/02 02:15:39;;;;;;;8.70;3.92;;;;;;;3.87;100.00;99197.25;5034796;28;20033;-74
2024/04/02 02:18:05;;;;;;;10.00;4.03;;;;;;;3.71;100.00;99187.50;5034457;28;20107;-74
2024/04/02 02:20:31;;;;;;;7.22;3.65;;;;;;;3.63;100.00;99189.34;5018342;28;20060;-75
2024/04/02 02:22:56;;;;;;;10.70;3.80;;;;;;;3.63;100.00;99194.69;5001946;28;20533;-74
2024/04/02 02:25:22;;;;;;;6.63;3.67;;;;;;;3.71;100.00;99194.66;5018545;28;20472;-74
2024/04/02 02:27:47;;;;;;;8.30;3.83;;;;;;;3.80;100.00;99190.13;5001649;28;20523;-74
2024/04/02 02:30:13;;;;;;;8.18;4.30;;;;;;;3.88;100.00;99188.28;5001657;28;20025;-74
2024/04/02 02:32:39;;;;;;;6.55;3.17;;;;;;;3.94;100.00;99190.28;5033947;28;20026;-74
2024/04/02 02:35:05;;;;;;;8.88;3.97;;;;;;;3.94;100.00;99186.75;5034236;28;20026;-74
2024/04/02 02:37:30;;;;;;;7.13;3.22;;;;;;;3.94;100.00;99184.09;5017691;28;20444;-74
2024/04/02 02:39:57;;;;;;;8.20;4.15;;;;;;;3.93;100.00;99187.78;5033722;28;20036;-74
2024/04/02 02:42:25;;;;;;;13.02;3.95;;;;;;;3.87;100.00;99189.28;5001608;28;20537;-74
2024/04/02 02:44:51;;;;;;;6.15;3.50;;;;;;;3.95;100.00;99202.56;5001686;28;20030;-74
2024/04/02 02:47:18;;;;;;;7.32;3.65;;;;;;;4.02;100.00;99200.03;5033689;28;20028;-74
2024/04/02 02:49:43;;;;;;;7.95;3.17;;;;;;;4.08;100.00;99214.50;5001407;28;20122;-74
2024/04/02 02:52:09;;;;;;;8.05;3.83;;;;;;;4.09;100.00;99216.13;5017416;28;20060;-74
2024/04/02 02:54:35;;;;;;;7.85;3.88;;;;;;;4.09;100.00;99216.97;5001349;28;20049;-74
2024/04/02 02:57:00;;;;;;;7.80;4.00;;;;;;;4.17;100.00;99219.59;5017759;28;20041;-74
2024/04/02 02:59:26;;;;;;;10.55;4.43;;;;;;;4.32;100.00;99214.38;5000753;28;20025;-74
2024/04/02 03:01:51;;;;;;;13.35;4.05;;;;;;;4.46;100.00;99211.97;5049889;28;20037;-74
2024/04/02 03:04:17;;;;;;;5.45;3.70;;;;;;;4.50;100.00;99207.97;5001156;28;20075;-74
2024/04/02 03:06:43;;;;;;;8.52;4.68;;;;;;;4.46;100.00;99217.31;5033689;28;20033;-74
2024/04/02 03:09:11;;;;;;;9.00;4.40;;;;;;;4.38;100.00;99219.00;5000455;28;20083;-74
2024/04/02 03:11:37;;;;;;;8.70;3.70;;;;;;;4.38;100.00;99220.84;5001330;28;20530;-74
2024/04/02 03:14:03;;;;;;;6.75;3.22;;;;;;;4.39;100.00;99215.34;5000915;28;20029;-74
2024/04/02 03:16:28;;;;;;;7.40;3.63;;;;;;;4.45;100.00;99219.16;5000817;28;20595;-74
2024/04/02 03:18:54;;;;;;;7.45;3.45;;;;;;;4.50;100.00;99221.25;5049758;28;20448;-74
2024/04/02 03:21:20;;;;;;;8.32;3.80;;;;;;;4.54;100.00;99215.44;5033385;28;20037;-74
2024/04/02 03:23:46;;;;;;;6.47;3.63;;;;;;;4.58;100.00;99219.41;5000694;28;20022;-74
2024/04/02 03:26:12;;;;;;;7.30;3.15;;;;;;;4.64;100.00;99217.88;5000571;28;20456;-74
2024/04/02 03:28:39;;;;;;;7.50;3.92;;;;;;;4.69;100.00;99220.84;5032803;28;20411;-74
2024/04/02 03:31:04;;;;;;;8.57;4.50;;;;;;;4.69;100.00;99228.84;5000609;28;20031;-74
2024/04/02 03:33:30;;;;;;;8.93;4.25;;;;;;;4.70;100.00;99219.00;5000534;28;20123;-75
2024/04/02 03:36:06;;;;;;;6.68;3.58;;;;;;;4.77;100.00;99223.47;5000293;28;20021;-74
2024/04/02 03:38:32;;;;;;;6.70;3.33;;;;;;;4.76;100.00;99221.81;5016422;28;20118;-74
2024/04/02 03:41:08;;;;;;;9.43;4.30;;;;;;;4.77;100.00;99225.28;5016487;28;20033;-74
2024/04/02 03:43:34;;;;;;;8.57;4.43;;;;;;;4.73;100.00;99227.47;5016275;28;20056;-74
2024/04/02 03:46:06;;;;;;;7.15;3.85;;;;;;;4.71;100.00;99229.50;5017844;28;20036;-75
2024/04/02 03:48:33;;;;;;;7.53;3.50;;;;;;;4.69;100.00;99234.16;5017849;28;20041;-75
2024/04/02 03:50:58;;;;;;;8.85;3.30;;;;;;;4.71;100.00;99225.97;5000228;28;20025;-74
2024/04/02 03:53:24;;;;;;;7.93;3.80;;;;;;;4.69;100.00;99238.66;5000042;28;20117;-74
2024/04/02 03:56:00;;;;;;;9.25;4.15;;;;;;;4.71;100.00;99240.13;4999852;28;20033;-74
2024/04/02 03:58:27;;;;;;;9.15;4.25;;;;;;;4.77;100.00;99235.94;5032695;28;20498;-74
2024/04/02 04:00:56;;;;;;;8.80;4.32;;;;;;;4.82;100.00;99233.59;5016354;28;20029;-74
2024/04/02 04:03:25;;;;;;;11.02;3.97;;;;;;;4.84;100.00;99237.72;4999919;28;20033;-74
2024/04/02 04:06:02;;;;;;;7.72;3.95;;;;;;;4.91;100.00;99242.34;5016018;28;20037;-75
2024/04/02 04:08:28;;;;;;;10.18;4.03;;;;;;;4.94;100.00;99242.81;5015618;28;20116;-77
2024/04/02 04:10:54;;;;;;;7.20;3.45;;;;;;;4.98;100.00;99248.63;4999710;28;20468;-74
2024/04/02 04:13:20;;;;;;;9.63;4.55;;;;;;;4.95;100.00;99239.16;5032512;28;20034;-74
2024/04/02 04:15:53;;;;;;;10.10;4.43;;;;;;;4.92;100.00;99244.00;5000018;28;20131;-74
2024/04/02 04:18:20;;;;;;;7.03;3.88;;;;;;;4.90;100.00;99246.84;5032479;28;20487;-74
2024/04/02 04:21:00;;;;;;;10.88;4.57;;;;;;;4.93;100.00;99257.16;4999856;28;20037;-74
2024/04/02 04:23:26;;;;;;;6.65;3.55;;;;;;;4.95;100.00;99251.63;4999800;28;20037;-74
2024/04/02 04:25:59;;;;;;;8.75;5.13;;;;;;;4.99;100.00;99251.09;5016308;28;20097;-74
2024/04/02 04:28:25;;;;;;;6.85;3.92;;;;;;;4.98;100.00;99252.13;4999761;28;20037;-74
2024/04/02 04:30:59;;;;;;;11.45;5.07;;;;;;;4.97;100.00;99257.59;4999695;28;20464;-74
2024/04/02 04:33:25;;;;;;;8.77;4.32;;;;;;;4.95;100.00;99252.47;5016250;28;20436;-74
2024/04/02 04:35:51;;;;;;;7.55;4.35;;;;;;;4.95;100.00;99257.81;4999564;28;20442;-74
2024/04/02 04:38:17;;;;;;;8.90;4.43;;;;;;;4.97;100.00;99257.59;4999635;28;20452;-74
2024/04/02 04:40:43;;;;;;;12.65;4.85;;;;;;;4.96;100.00;99255.97;4999557;28;20033;-74
2024/04/02 04:43:11;;;;;;;12.85;4.90;;;;;;;4.92;100.00;99244.84;5016009;28;20464;-74
2024/04/02 04:45:37;;;;;;;8.00;4.22;;;;;;;4.96;100.00;99251.47;5015588;28;20394;-74
2024/04/02 04:48:07;;;;;;;10.38;5.32;;;;;;;4.96;100.00;99250.63;5032378;28;20061;-74
2024/04/02 04:50:33;;;;;;;13.70;5.53;;;;;;;4.95;100.00;99251.63;5032008;28;20414;-74
2024/04/02 04:53:00;;;;;;;13.30;5.25;;;;;;;4.96;100.00;99248.78;5032117;28;20452;-74
2024/04/02 04:55:25;;;;;;;11.23;4.40;;;;;;;4.94;100.00;99253.47;5031923;28;20479;-74
2024/04/02 04:57:51;;;;;;;9.20;4.95;;;;;;;4.88;100.00;99254.19;5015653;28;20022;-74
2024/04/02 05:00:17;;;;;;;8.95;4.88;;;;;;;4.86;100.00;99250.84;4999404;28;20041;-74
2024/04/02 05:02:43;;;;;;;8.82;3.78;;;;;;;4.90;100.00;99248.69;5032016;28;20125;-74
2024/04/02 05:05:09;;;;;;;10.10;4.97;;;;;;;4.87;100.00;99247.22;5015750;28;20048;-74
2024/04/02 05:07:34;;;;;;;10.73;4.97;;;;;;;4.89;100.00;99249.66;5032168;28;20041;-74
2024/04/02 05:10:00;;;;;;;10.52;4.55;;;;;;;4.88;100.00;99253.34;4999499;28;20032;-74
2024/04/02 05:12:26;;;;;;;10.82;4.53;;;;;;;4.85;100.00;99246.53;5032893;28;20025;-74
2024/04/02 05:14:51;;;;;;;10.65;5.25;;;;;;;4.86;100.00;99240.19;5032182;28;20029;-74
2024/04/02 05:17:17;;;;;;;8.95;4.80;;;;;;;4.88;100.00;99246.19;4999246;28;20025;-74
2024/04/02 05:19:43;;;;;;;9.95;4.88;;;;;;;4.86;100.00;99242.88;5015748;28;20124;-74
2024/04/02 05:22:09;;;;;;;13.00;4.85;;;;;;;4.81;100.00;99248.72;5015646;28;20399;-75
2024/04/02 05:24:37;;;;;;;11.50;5.30;;;;;;;4.76;100.00;99248.44;4999371;28;20068;-74
2024/04/02 05:27:02;;;;;;;11.25;4.82;;;;;;;4.70;100.00;99243.78;5032331;28;20033;-74
2024/04/02 05:29:29;;;;;;;12.43;5.13;;;;;;;4.63;100.00;99251.66;5032130;28;20052;-74
2024/04/02 05:31:55;;;;;;;12.73;4.70;;;;;;;4.55;100.00;99242.88;5015497;28;20041;-74
2024/04/02 05:34:20;;;;;;;7.13;3.95;;;;;;;4.48;100.00;99239.25;5034263;28;20029;-74
2024/04/02 05:36:46;;;;;;;6.35;3.63;;;;;;;4.34;100.00;99244.31;5035359;28;20029;-74
2024/04/02 05:39:12;;;;;;;11.88;4.78;;;;;;;4.26;100.00;99246.16;5018519;28;20376;-74
2024/04/02 05:41:37;;;;;;;8.95;4.13;;;;;;;4.13;100.00;99247.53;5018957;28;20026;-74
2024/04/02 05:44:05;;;;;;;10.50;5.03;;;;;;;3.93;100.00;99239.13;5002571;28;20533;-74
2024/04/02 05:46:31;;;;;;;9.02;4.20;;;;;;;3.78;100.00;99239.97;5018880;28;20112;-74
2024/04/02 05:48:56;;;;;;;8.95;3.63;;;;;;;3.64;100.00;99238.84;5034656;28;20113;-74
2024/04/02 05:51:22;;;;;;;12.27;4.47;;;;;;;3.51;100.00;99242.84;5018733;28;20048;-74
2024/04/02 05:53:48;;;;;;;7.47;4.07;;;;;;;3.41;100.00;99238.69;5035194;28;20033;-74
2024/04/02 05:56:13;;;;;;;7.53;3.65;;;;;;;3.35;100.00;99247.34;5018364;28;20044;-74
2024/04/02 05:58:39;;;;;;;8.80;3.72;;;;;;;3.37;100.00;99238.22;5001925;28;20028;-74
2024/04/02 06:01:06;;;;;;;7.03;3.95;;;;;;;3.31;100.00;99246.84;5002153;28;20037;-74
2024/04/02 06:03:31;;;;;;;9.93;4.50;;;;;;;3.18;100.00;99238.56;5034496;28;20368;-74
2024/04/02 06:05:58;;;;;;;7.65;3.95;;;;;;;3.17;100.00;99235.03;5034828;28;20021;-74
2024/04/02 06:08:26;;;;;;;7.20;3.60;;;;;;;3.14;100.00;99232.72;5001607;28;20042;-75
2024/04/02 06:10:52;;;;;;;7.95;3.83;;;;;;;3.00;100.00;99236.88;5001633;28;20037;-74
2024/04/02 06:13:17;;;;;;;8.38;3.78;;;;;;;2.90;100.00;99236.19;5001689;28;20026;-74
2024/04/02 06:15:44;;;;;;;11.02;3.67;;;;;;;2.89;100.00;99237.19;5017814;28;20022;-74
2024/04/02 06:18:10;;;;;;;8.07;3.30;;;;;;;2.90;100.00;99232.72;5018503;28;20021;-74
2024/04/02 06:20:35;;;;;;;13.27;4.43;;;;;;;2.90;100.00;99230.88;5001920;28;20460;-74
2024/04/02 06:23:01;;;;;;;8.57;4.13;;;;;;;3.01;100.00;99227.91;5034700;28;20029;-74
2024/04/02 06:25:28;;;;;;;10.85;3.90;;;;;;;3.07;100.00;99237.06;5018165;28;20036;-74
2024/04/02 06:27:53;;;;;;;7.68;3.80;;;;;;;3.08;100.00;99236.06;5017772;28;20041;-75
2024/04/02 06:30:19;;;;;;;6.85;3.40;;;;;;;3.11;100.00;99241.03;5050915;28;20025;-74
2024/04/02 06:32:44;;;;;;;11.10;3.83;;;;;;;3.22;100.00;99245.19;5001779;28;20029;-74
2024/04/02 06:35:11;;;;;;;10.27;4.40;;;;;;;3.35;100.00;99245.50;5018577;28;20368;-74
2024/04/02 06:37:36;;;;;;;7.10;3.85;;;;;;;3.59;100.00;99249.16;5017621;28;20060;-74
2024/04/02 06:40:03;;;;;;;9.57;4.50;;;;;;;3.87;100.00;99250.44;5001458;28;20084;-74
2024/04/02 06:42:28;;;;;;;14.63;4.95;;;;;;;4.24;100.00;99250.84;5033867;28;20029;-74
2024/04/02 06:44:55;;;;;;;9.23;4.13;;;;;;;4.44;100.00;99251.25;5001088;28;20369;-74
2024/04/02 06:47:21;;;;;;;13.68;4.63;;;;;;;4.66;100.00;99255.81;5001216;28;20368;-74
2024/04/02 06:49:46;;;;;;;11.20;4.68;;;;;;;5.07;100.00;99255.53;5050647;28;20025;-74
2024/04/02 06:52:12;;;;;;;10.05;4.75;;;;;;;5.19;100.00;99253.31;5017375;28;20033;-74
2024/04/02 06:54:38;;;;;;;10.68;4.47;;;;;;;5.04;100.00;99258.56;5033923;28;20022;-74
2024/04/02 06:57:04;;;;;;;8.52;4.40;;;;;;;4.94;100.00;99256.13;5017629;28;20460;-74
2024/04/02 06:59:29;;;;;;;8.50;4.15;;;;;;;4.90;100.00;99256.69;5033689;28;20103;-74
2024/04/02 07:01:55;;;;;;;10.48;4.30;;;;;;;5.05;100.00;99252.22;5017424;28;20037;-74
2024/04/02 07:04:21;;;;;;;10.75;4.25;;;;;;;5.33;100.00;99257.84;5017080;28;20471;-74
2024/04/02 07:06:46;;;;;;;7.43;4.07;;;;;;;5.62;100.00;99269.63;5000903;28;20022;-74
2024/04/02 07:09:12;;;;;;;10.95;4.55;;;;;;;5.84;100.00;99268.72;5017124;28;20048;-74
2024/04/02 07:11:40;;;;;;;13.35;4.65;;;;;;;5.98;100.00;99269.81;5033261;28;20021;-74
2024/04/02 07:14:06;;;;;;;9.63;5.15;;;;;;;6.15;100.00;99268.59;5049953;28;20058;-74
2024/04/02 07:16:31;;;;;;;10.15;4.15;;;;;;;6.31;100.00;99270.25;5000865;28;20029;-74
2024/04/02 07:19:00;;;;;;;12.60;5.07;;;;;;;6.56;100.00;99275.31;5000444;28;20029;-74
2024/04/02 07:21:25;;;;;;;11.93;5.70;;;;;;;6.75;100.00;99273.91;5017016;28;20527;-74
2024/04/02 07:23:51;;;;;;;14.02;5.18;;;;;;;6.96;100.00;99271.28;5016610;28;20159;-74
2024/04/02 07:26:17;;;;;;;15.00;6.15;;;;;;;7.06;100.00;99265.59;5017045;28;20040;-75
2024/04/02 07:28:42;;;;;;;9.60;4.57;;;;;;;7.23;100.00;99276.91;5000529;28;20086;-74
2024/04/02 07:31:08;;;;;;;11.02;4.90;;;;;;;7.56;100.00;99273.69;5000382;28;20555;-74
2024/04/02 07:33:34;;;;;;;15.07;5.65;;;;;;;7.72;100.00;99286.78;5016710;28;20040;-74
2024/04/02 07:36:01;;;;;;;11.70;5.57;;;;;;;7.91;100.00;99288.81;5033308;28;20030;-74
2024/04/02 07:38:27;;;;;;;12.55;5.80;;;;;;;8.14;100.00;99296.56;5016620;28;20475;-74
2024/04/02 07:40:52;;;;;;;11.30;5.07;;;;;;;8.27;100.00;99290.47;5016647;28;20033;-75
2024/04/02 07:43:18;;;;;;;13.13;5.65;;;;;;;8.53;100.00;99289.84;5033232;28;20033;-74
2024/04/02 07:45:51;;;;;;;12.55;5.82;;;;;;;9.06;100.00;99288.41;5000242;28;20030;-74
2024/04/02 07:48:17;;;;;;;11.60;6.50;;;;;;;9.07;100.00;99285.50;5001307;28;20030;-74
2024/04/02 07:50:45;;;;;;;13.05;5.88;;;;;;;9.25;100.00;99293.78;5016227;28;20476;-74
2024/04/02 07:53:10;;;;;;;12.30;6.63;;;;;;;9.73;100.00;99295.50;5000246;28;20049;-74
2024/04/02 07:55:36;;;;;;;14.07;6.45;;;;;;;10.67;100.00;99290.84;5015427;28;20122;-74
2024/04/02 07:58:02;;;;;;;11.15;6.55;;;;;;;11.00;100.00;99288.81;5016323;28;20100;-74
2024/04/02 08:00:29;;;;;;;8.50;4.97;;;;;;;11.27;100.00;99280.59;5033013;28;20033;-74
2024/04/02 08:02:54;;;;;;;10.10;5.10;;;;;;;11.82;100.00;99282.72;5049286;28;20041;-74
2024/04/02 08:05:20;;;;;;;9.65;5.47;;;;;;;12.11;100.00;99281.22;5016104;28;20021;-74
2024/04/02 08:07:46;;;;;;;9.00;5.60;;;;;;;12.29;100.00;99283.97;5017297;28;20025;-74
2024/04/02 08:10:13;;;;;;;7.60;5.05;;;;;;;12.66;100.00;99281.28;5016054;28;20033;-74
2024/04/02 08:12:39;;;;;;;8.50;4.47;;;;;;;12.87;100.00;99284.56;5000067;28;20040;-74
2024/04/02 08:15:04;;;;;;;8.88;5.32;;;;;;;12.96;100.00;99284.00;5031804;28;20017;-76
2024/04/02 08:17:31;;;;;;;9.02;4.90;;;;;;;12.74;100.00;99291.75;5032018;28;20079;-77
2024/04/02 08:19:56;;;;;;;6.80;5.15;;;;;;;12.87;100.00;99292.66;5032260;28;20030;-76
2024/04/02 08:22:25;;;;;;;7.57;5.00;;;;;;;13.42;100.00;99289.88;5000313;28;20108;-76
2024/04/02 08:24:53;;;;;;;11.88;4.95;;;;;;;13.52;100.00;99289.28;5033367;28;20105;-76
2024/04/02 08:27:18;;;;;;;6.47;4.93;;;;;;;13.21;100.00;99288.47;5032228;28;20044;-76
2024/04/02 08:29:45;;;;;;;6.85;4.65;;;;;;;13.28;100.00;99289.22;5033407;28;20033;-76
2024/04/02 08:32:10;;;;;;;8.32;5.20;;;;;;;13.57;100.00;99292.13;5032599;28;20057;-76
2024/04/02 08:34:36;;;;;;;7.22;5.15;;;;;;;12.48;100.00;99281.28;5032577;28;20431;-75
2024/04/02 08:37:02;;;;;;;8.00;4.70;;;;;;;11.52;100.00;99287.91;4999853;28;20030;-76
2024/04/02 08:39:28;;;;;;;6.15;4.10;;;;;;;12.05;100.00;99287.53;5016355;28;20112;-76
2024/04/02 08:42:01;;;;;;;6.35;4.88;;;;;;;12.20;100.00;99289.84;5032077;28;20476;-76
2024/04/02 08:44:32;;;;;;;7.35;4.85;;;;;;;12.50;100.00;99293.47;5049025;28;20132;-76
2024/04/02 08:47:00;;;;;;;6.05;5.05;;;;;;;12.88;100.00;99278.91;5031947;28;20026;-76
2024/04/02 08:49:26;;;;;;;5.43;3.75;;;;;;;13.60;100.00;99275.44;4999618;28;20345;-76
2024/04/02 08:51:53;;;;;;;5.40;3.80;;;;;;;13.91;100.00;99285.13;5015933;28;20041;-76
2024/04/02 08:54:19;;;;;;;6.57;3.90;;;;;;;14.70;100.00;99282.88;5015529;28;20407;-76
2024/04/02 08:56:46;;;;;;;5.50;4.05;;;;;;;15.70;100.00;99291.56;5032214;28;20321;-76
2024/04/02 08:59:13;;;;;;;7.18;4.70;;;;;;;16.66;100.00;99293.25;4999422;28;20072;-76
2024/04/02 09:01:41;;;;;;;5.97;4.15;;;;;;;17.38;100.00;99300.34;5015680;28;20022;-74
2024/04/02 09:04:06;;;;;;;5.95;3.80;;;;;;;17.82;100.00;99283.13;5032392;28;20040;-74
2024/04/02 09:06:35;;;;;;;4.20;3.30;;;;;;;18.01;100.00;99287.88;5015847;28;20022;-75
2024/04/02 09:09:00;;;;;;;6.07;4.35;;;;;;;18.27;100.00;99279.09;5036020;28;20064;-74
2024/04/02 09:11:26;;;;;;;6.10;3.17;;;;;;;18.36;100.00;99289.22;5053011;28;20033;-75
2024/04/02 09:13:52;;;;;;;3.25;2.88;;;;;;;18.51;100.00;99287.69;5019504;28;20037;-75
2024/04/02 09:16:19;;;;;;;3.70;2.67;;;;;;;17.97;100.00;99286.78;5019477;28;20468;-75
2024/04/02 09:18:45;;;;;;;3.70;2.70;;;;;;;15.68;100.00;99271.16;5002885;28;20075;-74
2024/04/02 09:21:13;;;;;;;7.95;6.18;;;;;;;14.76;100.00;99278.38;5019444;28;20024;-74
2024/04/02 09:23:42;;;;;;;4.57;3.15;;;;;;;13.47;100.00;99281.91;5019819;28;20037;-75
2024/04/02 09:26:08;;;;;;;4.00;3.20;;;;;;;12.81;100.00;99269.25;5019283;28;20120;-75
2024/04/02 09:28:39;;;;;;;3.72;3.05;;;;;;;12.90;100.00;99267.91;5019133;28;20075;-75
2024/04/02 09:31:05;;;;;;;4.38;3.30;;;;;;;14.37;100.00;99275.38;5002915;28;20075;-74
2024/04/02 09:33:31;;;;;;;6.60;4.78;;;;;;;16.38;100.00;99276.06;5002798;28;20084;-74
2024/04/02 09:36:13;;;;;;;6.45;4.00;;;;;;;16.25;100.00;99277.25;5019711;28;20021;-75
2024/04/02 09:38:41;;;;;;;15.43;7.43;;;;;;;15.04;100.00;99277.59;5035348;28;20063;-74
2024/04/02 09:41:07;;;;;;;3.92;2.70;;;;;;;13.99;100.00;99282.06;5035440;28;20099;-74
2024/04/02 09:43:33;;;;;;;15.77;8.82;;;;;;;13.92;100.00;99277.84;5002576;28;20029;-74
2024/04/02 09:46:00;;;;;;;9.15;4.93;;;;;;;13.52;100.00;99281.19;5002581;28;20037;-75
2024/04/02 09:48:29;;;;;;;6.63;3.13;;;;;;;13.14;100.00;99285.03;5002590;28;20034;-74
2024/04/02 09:50:56;;;;;;;4.78;3.10;;;;;;;13.62;100.00;99286.84;5019340;28;20033;-75
2024/04/02 09:53:23;;;;;;;4.25;3.30;;;;;;;15.39;100.00;99277.44;5035031;28;20060;-75
2024/04/02 09:55:48;;;;;;;4.50;3.28;;;;;;;14.55;100.00;99287.94;5018475;28;20033;-75
2024/04/02 09:58:15;;;;;;;5.22;3.90;;;;;;;14.44;100.00;99278.78;5002277;28;20086;-75
2024/04/02 10:00:43;;;;;;;4.78;2.83;;;;;;;15.99;100.00;99277.94;5035122;28;20110;-75
2024/04/02 10:03:10;;;;;;;3.20;2.10;;;;;;;15.96;100.00;99270.28;5018501;28;20029;-75
2024/04/02 10:05:35;;;;;;;2.67;2.42;;;;;;;16.02;100.00;99266.59;5002304;28;20040;-75
2024/04/02 10:08:02;;;;;;;3.90;2.78;;;;;;;16.23;100.00;99267.72;5035072;28;20029;-75
2024/04/02 10:10:31;;;;;;;3.42;2.25;;;;;;;15.87;100.00;99263.63;5034792;28;20025;-75
2024/04/02 10:12:58;;;;;;;5.97;3.85;;;;;;;15.76;100.00;99268.88;5002459;28;20049;-75
2024/04/02 10:15:24;;;;;;;4.60;2.35;;;;;;;16.35;100.00;99264.88;5018091;28;20021;-75
2024/04/02 10:17:58;;;;;;;2.78;2.45;;;;;;;17.03;100.00;99266.31;5002033;28;20025;-75
2024/04/02 10:20:27;;;;;;;3.88;2.08;;;;;;;16.99;100.00;99264.34;5001289;28;20040;-76
2024/04/02 10:22:53;;;;;;;4.55;2.65;;;;;;;16.33;100.00;99269.75;5018260;28;20074;-75
2024/04/02 10:25:19;;;;;;;3.78;2.30;;;;;;;15.92;100.00;99261.00;5002793;28;20033;-75
2024/04/02 10:27:47;;;;;;;3.58;1.70;;;;;;;15.80;100.00;99259.19;5001877;28;20534;-75
2024/04/02 10:30:27;;;;;;;3.15;1.30;;;;;;;15.77;100.00;99275.97;5002083;28;20484;-75
2024/04/02 10:32:54;;;;;;;2.35;1.30;;;;;;;16.11;100.00;99264.25;5001954;28;20067;-75
2024/04/02 10:35:23;;;;;;;2.63;1.48;;;;;;;16.33;100.00;99267.03;5001540;28;20079;-75
2024/04/02 10:37:54;;;;;;;4.25;1.75;;;;;;;16.25;100.00;99260.97;5017669;28;20420;-74
2024/04/02 10:40:20;;;;;;;3.33;1.80;;;;;;;17.31;100.00;99273.41;5034390;28;20083;-75
2024/04/02 10:42:47;;;;;;;3.25;1.95;;;;;;;16.56;100.00;99274.94;5001574;28;20037;-75
2024/04/02 10:45:14;;;;;;;4.70;2.53;;;;;;;16.34;100.00;99268.66;5033849;28;20026;-75
2024/04/02 10:47:53;;;;;;;4.05;1.58;;;;;;;17.01;100.00;99273.88;5017779;28;20044;-75
2024/04/02 10:50:21;;;;;;;3.17;1.63;;;;;;;17.30;100.00;99279.91;5017990;28;20037;-75
2024/04/02 10:52:47;;;;;;;3.30;1.90;;;;;;;17.40;100.00;99268.31;5017205;28;20033;-76
2024/04/02 10:55:13;;;;;;;4.32;2.67;;;;;;;17.47;100.00;99265.41;5000988;28;20416;-75
2024/04/02 10:57:39;;;;;;;4.25;2.30;;;;;;;17.39;100.00;99276.75;5001187;28;20037;-75
2024/04/02 11:00:09;;;;;;;3.50;1.98;;;;;;;17.81;99.53;99271.44;5017790;28;20114;-75
2024/04/02 11:02:35;;;;;;;5.45;3.65;;;;;;;17.93;100.00;99272.06;5017172;28;20029;-74
2024/04/02 11:05:01;;;;;;;5.85;2.92;;;;;;;17.67;100.00;99272.91;5001610;28;20032;-75
2024/04/02 11:07:28;;;;;;;3.75;1.98;;;;;;;17.62;100.00;99276.38;5001207;28;20435;-75
2024/04/02 11:09:54;;;;;;;3.65;1.75;;;;;;;18.72;90.47;99272.28;5033630;28;20091;-75
2024/04/02 11:12:20;;;;;;;3.30;1.80;;;;;;;18.77;94.31;99270.41;5000680;28;20036;-75
2024/04/02 11:14:51;;;;;;;5.95;4.35;;;;;;;20.33;88.13;99268.41;5000508;28;20380;-74
2024/04/02 11:17:17;;;;;;;3.08;2.00;;;;;;;20.38;67.38;99265.69;5017053;28;20029;-75
2024/04/02 11:19:44;;;;;;;3.42;1.70;;;;;;;18.78;89.01;99263.88;5017248;28;20112;-76
2024/04/02 11:25:03;;;;;;;2.25;1.52;;;;;;;18.21;96.44;99268.19;5019822;28;20033;-75
2024/04/02 11:27:31;;;;;;;3.22;1.73;;;;;;;19.27;85.83;99262.66;5019649;28;20115;-75
2024/04/02 11:29:57;;;;;;;3.38;2.20;;;;;;;20.56;82.68;99264.25;5016959;28;20043;-75